CXA449 KSAF-KPSO
Flight info
| Callsign | CXA449 |
|---|---|
| Flight time | 0h 49m |
| Altitude | 22000 |
| Route | POAKE2 TAS BRAZO |
| Aircraft | TBM9/L-SDFGRWY/S |
Departure
| Time | 2026-04-25 12:35 |
|---|---|
| Airport | Santa Fe Municipal Airport (KSAF) |
Arrival
| Time | 2026-04-25 13:24 |
|---|---|
| Airport | Stevens Field (KPSO) |
| Time | Latitude | Longitude | Altitude | Speed | Heading |
|---|---|---|---|---|---|
| 2026-04-25 12:08 | 35.61771 | -106.08557 | 6299 ft | 0 kts | 140° |
| 2026-04-25 12:29 | 35.61765 | -106.08556 | 6336 ft | 3 kts | 203° |
| 2026-04-25 12:30 | 35.61771 | -106.08595 | 6336 ft | 6 kts | 317° |
| 2026-04-25 12:30 | 35.61807 | -106.08611 | 6337 ft | 6 kts | 7° |
| 2026-04-25 12:30 | 35.61851 | -106.08582 | 6338 ft | 9 kts | 34° |
| 2026-04-25 12:30 | 35.61908 | -106.08532 | 6340 ft | 12 kts | 36° |
| 2026-04-25 12:31 | 35.61986 | -106.08460 | 6341 ft | 16 kts | 35° |
| 2026-04-25 12:31 | 35.62088 | -106.08383 | 6344 ft | 18 kts | 32° |
| 2026-04-25 12:31 | 35.62198 | -106.08279 | 6344 ft | 22 kts | 32° |
| 2026-04-25 12:31 | 35.62340 | -106.08164 | 6346 ft | 26 kts | 38° |
| 2026-04-25 12:32 | 35.62490 | -106.08031 | 6346 ft | 27 kts | 39° |
| 2026-04-25 12:32 | 35.62574 | -106.07960 | 6349 ft | 13 kts | 24° |
| 2026-04-25 12:32 | 35.62617 | -106.07966 | 6349 ft | 0 kts | 341° |
| 2026-04-25 12:33 | 35.62621 | -106.07968 | 6349 ft | 3 kts | 340° |
| 2026-04-25 12:33 | 35.62673 | -106.07996 | 6349 ft | 13 kts | 313° |
| 2026-04-25 12:34 | 35.62672 | -106.08044 | 6348 ft | 0 kts | 213° |
| 2026-04-25 12:34 | 35.62670 | -106.08046 | 6348 ft | 0 kts | 211° |
| 2026-04-25 12:34 | 35.62596 | -106.08111 | 6346 ft | 39 kts | 222° |
| 2026-04-25 12:35 | 35.62055 | -106.08549 | 6357 ft | 96 kts | 210° |
| 2026-04-25 12:35 | 35.61474 | -106.09049 | 6653 ft | 111 kts | 217° |
| 2026-04-25 12:35 | 35.60830 | -106.09648 | 7025 ft | 124 kts | 222° |
| 2026-04-25 12:35 | 35.60021 | -106.10464 | 6878 ft | 173 kts | 219° |
| 2026-04-25 12:36 | 35.59017 | -106.11404 | 7196 ft | 186 kts | 218° |
| 2026-04-25 12:36 | 35.57952 | -106.12372 | 7614 ft | 194 kts | 219° |
| 2026-04-25 12:36 | 35.56838 | -106.13368 | 8048 ft | 202 kts | 219° |
| 2026-04-25 12:36 | 35.55682 | -106.14390 | 8496 ft | 207 kts | 219° |
| 2026-04-25 12:37 | 35.54495 | -106.15427 | 8947 ft | 210 kts | 220° |
| 2026-04-25 12:37 | 35.53286 | -106.16411 | 9392 ft | 210 kts | 211° |
| 2026-04-25 12:37 | 35.51814 | -106.16615 | 9847 ft | 223 kts | 174° |
| 2026-04-25 12:37 | 35.50445 | -106.15678 | 10273 ft | 234 kts | 136° |
| 2026-04-25 12:38 | 35.49709 | -106.13915 | 10703 ft | 236 kts | 99° |
| 2026-04-25 12:38 | 35.49884 | -106.11969 | 11150 ft | 228 kts | 61° |
| 2026-04-25 12:38 | 35.50741 | -106.10412 | 11604 ft | 222 kts | 45° |
| 2026-04-25 12:38 | 35.51725 | -106.08955 | 12063 ft | 222 kts | 44° |
| 2026-04-25 12:39 | 35.52718 | -106.07505 | 12528 ft | 222 kts | 44° |
| 2026-04-25 12:39 | 35.53721 | -106.06058 | 12988 ft | 223 kts | 43° |
| 2026-04-25 12:39 | 35.54840 | -106.04769 | 13459 ft | 219 kts | 30° |
| 2026-04-25 12:39 | 35.56128 | -106.03612 | 13506 ft | 240 kts | 29° |
| 2026-04-25 12:40 | 35.57510 | -106.02397 | 13751 ft | 247 kts | 29° |
| 2026-04-25 12:40 | 35.58927 | -106.01163 | 13998 ft | 252 kts | 28° |
| 2026-04-25 12:40 | 35.60374 | -105.99920 | 14240 ft | 256 kts | 28° |
| 2026-04-25 12:40 | 35.61849 | -105.98665 | 14482 ft | 260 kts | 28° |
| 2026-04-25 12:41 | 35.63392 | -105.97540 | 14717 ft | 254 kts | 12° |
| 2026-04-25 12:41 | 35.65072 | -105.97383 | 14955 ft | 236 kts | 339° |
| 2026-04-25 12:41 | 35.66450 | -105.98292 | 15208 ft | 220 kts | 308° |
| 2026-04-25 12:41 | 35.67358 | -105.99775 | 15466 ft | 215 kts | 294° |
| 2026-04-25 12:42 | 35.68156 | -106.01336 | 15719 ft | 220 kts | 305° |
| 2026-04-25 12:42 | 35.68905 | -106.02200 | 15883 ft | 226 kts | 314° |
| 2026-04-25 12:42 | 35.70823 | -106.03413 | 16218 ft | 241 kts | 334° |
| 2026-04-25 12:42 | 35.72523 | -106.03703 | 16461 ft | 254 kts | 351° |
| 2026-04-25 12:43 | 35.74307 | -106.03498 | 16709 ft | 259 kts | 356° |
| 2026-04-25 12:43 | 35.76096 | -106.03264 | 16950 ft | 259 kts | 356° |
| 2026-04-25 12:43 | 35.79692 | -106.02731 | 17448 ft | 261 kts | 356° |
| 2026-04-25 12:44 | 35.81492 | -106.02463 | 17697 ft | 261 kts | 356° |
| 2026-04-25 12:44 | 35.83290 | -106.02200 | 17971 ft | 261 kts | 356° |
| 2026-04-25 12:44 | 35.86956 | -106.01663 | 18474 ft | 269 kts | 356° |
| 2026-04-25 12:45 | 35.88825 | -106.01383 | 18709 ft | 272 kts | 355° |
| 2026-04-25 12:45 | 35.90715 | -106.01101 | 18940 ft | 274 kts | 355° |
| 2026-04-25 12:45 | 35.94531 | -106.00538 | 19414 ft | 278 kts | 355° |
| 2026-04-25 12:46 | 35.96446 | -106.00292 | 19643 ft | 273 kts | 348° |
| 2026-04-25 12:46 | 35.98181 | -106.00801 | 19884 ft | 246 kts | 320° |
| 2026-04-25 12:46 | 35.99376 | -106.02146 | 20142 ft | 225 kts | 294° |
| 2026-04-25 12:46 | 35.99952 | -106.03896 | 20403 ft | 219 kts | 281° |
| 2026-04-25 12:47 | 36.00076 | -106.05729 | 20669 ft | 215 kts | 262° |
| 2026-04-25 12:47 | 35.99674 | -106.07512 | 20933 ft | 217 kts | 251° |
| 2026-04-25 12:47 | 35.98884 | -106.09125 | 21202 ft | 224 kts | 238° |
| 2026-04-25 12:47 | 35.97715 | -106.10440 | 21470 ft | 234 kts | 224° |
| 2026-04-25 12:48 | 35.96198 | -106.11309 | 21740 ft | 249 kts | 208° |
| 2026-04-25 12:48 | 35.94439 | -106.11554 | 21973 ft | 272 kts | 191° |
| 2026-04-25 12:48 | 35.92497 | -106.10948 | 21980 ft | 308 kts | 166° |
| 2026-04-25 12:48 | 35.90720 | -106.09259 | 21971 ft | 340 kts | 140° |
| 2026-04-25 12:49 | 35.89482 | -106.06682 | 21950 ft | 361 kts | 115° |
| 2026-04-25 12:49 | 35.89042 | -106.03596 | 21928 ft | 371 kts | 90° |
| 2026-04-25 12:49 | 35.89497 | -106.00484 | 21907 ft | 368 kts | 66° |
| 2026-04-25 12:49 | 35.90786 | -105.97807 | 21890 ft | 354 kts | 40° |
| 2026-04-25 12:50 | 35.92632 | -105.96016 | 21875 ft | 331 kts | 16° |
| 2026-04-25 12:50 | 35.94738 | -105.95274 | 21865 ft | 303 kts | 351° |
| 2026-04-25 12:50 | 35.96706 | -105.95625 | 21865 ft | 274 kts | 327° |
| 2026-04-25 12:50 | 35.98413 | -105.96582 | 21875 ft | 269 kts | 322° |
| 2026-04-25 12:51 | 36.00135 | -105.97514 | 21879 ft | 273 kts | 326° |
| 2026-04-25 12:51 | 36.01958 | -105.98263 | 21878 ft | 279 kts | 332° |
| 2026-04-25 12:51 | 36.03883 | -105.98775 | 21874 ft | 287 kts | 338° |
| 2026-04-25 12:51 | 36.05912 | -105.98965 | 21864 ft | 299 kts | 348° |
| 2026-04-25 12:52 | 36.08024 | -105.98690 | 21852 ft | 310 kts | 356° |
| 2026-04-25 12:52 | 36.10150 | -105.98217 | 21835 ft | 310 kts | 357° |
| 2026-04-25 12:52 | 36.12273 | -105.97841 | 21824 ft | 306 kts | 353° |
| 2026-04-25 12:52 | 36.14389 | -105.97578 | 21809 ft | 305 kts | 353° |
| 2026-04-25 12:53 | 36.16506 | -105.97292 | 21803 ft | 307 kts | 354° |
| 2026-04-25 12:53 | 36.18632 | -105.96958 | 21805 ft | 308 kts | 354° |
| 2026-04-25 12:53 | 36.20758 | -105.96629 | 21804 ft | 308 kts | 354° |
| 2026-04-25 12:53 | 36.22879 | -105.96319 | 21808 ft | 307 kts | 354° |
| 2026-04-25 12:54 | 36.25001 | -105.96007 | 21810 ft | 307 kts | 354° |
| 2026-04-25 12:54 | 36.27122 | -105.95689 | 21809 ft | 307 kts | 354° |
| 2026-04-25 12:54 | 36.29242 | -105.95370 | 21815 ft | 307 kts | 354° |
| 2026-04-25 12:54 | 36.31360 | -105.95055 | 21807 ft | 307 kts | 354° |
| 2026-04-25 12:55 | 36.33512 | -105.94737 | 21549 ft | 312 kts | 355° |
| 2026-04-25 12:55 | 36.34961 | -105.94514 | 21379 ft | 309 kts | 355° |
| 2026-04-25 12:55 | 36.37773 | -105.94087 | 21042 ft | 305 kts | 355° |
| 2026-04-25 12:55 | 36.39863 | -105.93777 | 20797 ft | 299 kts | 355° |
| 2026-04-25 12:56 | 36.41907 | -105.93471 | 20544 ft | 293 kts | 355° |
| 2026-04-25 12:56 | 36.43915 | -105.93174 | 20293 ft | 289 kts | 355° |
| 2026-04-25 12:56 | 36.45899 | -105.92880 | 20047 ft | 286 kts | 355° |
| 2026-04-25 12:56 | 36.47864 | -105.92585 | 19804 ft | 284 kts | 355° |
| 2026-04-25 12:57 | 36.49820 | -105.92291 | 19500 ft | 284 kts | 355° |
| 2026-04-25 12:57 | 36.51787 | -105.91998 | 19142 ft | 285 kts | 356° |
| 2026-04-25 12:57 | 36.53756 | -105.91741 | 18790 ft | 281 kts | 351° |
| 2026-04-25 12:57 | 36.55664 | -105.91893 | 18436 ft | 271 kts | 340° |
| 2026-04-25 12:58 | 36.57456 | -105.92460 | 18086 ft | 261 kts | 330° |
| 2026-04-25 12:58 | 36.59081 | -105.93384 | 17685 ft | 253 kts | 321° |
| 2026-04-25 12:58 | 36.60511 | -105.94609 | 17285 ft | 246 kts | 312° |
| 2026-04-25 12:58 | 36.61723 | -105.96078 | 16894 ft | 241 kts | 304° |
| 2026-04-25 12:59 | 36.62703 | -105.97738 | 16508 ft | 236 kts | 296° |
| 2026-04-25 12:59 | 36.63441 | -105.99541 | 16126 ft | 232 kts | 288° |
| 2026-04-25 12:59 | 36.63982 | -106.01420 | 15749 ft | 230 kts | 286° |
| 2026-04-25 12:59 | 36.64522 | -106.03293 | 15384 ft | 230 kts | 286° |
| 2026-04-25 13:00 | 36.65067 | -106.05169 | 15013 ft | 231 kts | 286° |
| 2026-04-25 13:00 | 36.65249 | -106.05804 | 14890 ft | 231 kts | 286° |
| 2026-04-25 13:00 | 36.66146 | -106.08934 | 14292 ft | 231 kts | 286° |
| 2026-04-25 13:00 | 36.66685 | -106.10818 | 13936 ft | 231 kts | 286° |
| 2026-04-25 13:01 | 36.67222 | -106.12696 | 13578 ft | 229 kts | 286° |
| 2026-04-25 13:01 | 36.67757 | -106.14564 | 13190 ft | 229 kts | 287° |
| 2026-04-25 13:01 | 36.68292 | -106.16430 | 12795 ft | 228 kts | 287° |
| 2026-04-25 13:01 | 36.68822 | -106.18290 | 12402 ft | 228 kts | 287° |
| 2026-04-25 13:02 | 36.69351 | -106.20147 | 12024 ft | 227 kts | 287° |
| 2026-04-25 13:02 | 36.69884 | -106.22009 | 11654 ft | 229 kts | 287° |
| 2026-04-25 13:02 | 36.70409 | -106.23849 | 11603 ft | 219 kts | 287° |
| 2026-04-25 13:02 | 36.70906 | -106.25611 | 11598 ft | 212 kts | 287° |
| 2026-04-25 13:03 | 36.71384 | -106.27303 | 11607 ft | 209 kts | 287° |
| 2026-04-25 13:03 | 36.71877 | -106.29032 | 11602 ft | 208 kts | 287° |
| 2026-04-25 13:03 | 36.72354 | -106.30706 | 11554 ft | 208 kts | 287° |
| 2026-04-25 13:03 | 36.72837 | -106.32402 | 11500 ft | 207 kts | 287° |
| 2026-04-25 13:04 | 36.73325 | -106.34121 | 11445 ft | 211 kts | 287° |
| 2026-04-25 13:04 | 36.73827 | -106.35895 | 11427 ft | 222 kts | 288° |
| 2026-04-25 13:04 | 36.74349 | -106.37717 | 11427 ft | 229 kts | 288° |
| 2026-04-25 13:04 | 36.74888 | -106.39608 | 11409 ft | 233 kts | 287° |
| 2026-04-25 13:05 | 36.75432 | -106.41542 | 11438 ft | 234 kts | 288° |
| 2026-04-25 13:05 | 36.75985 | -106.43476 | 11368 ft | 241 kts | 288° |
| 2026-04-25 13:05 | 36.76559 | -106.45486 | 11159 ft | 250 kts | 288° |
| 2026-04-25 13:05 | 36.77141 | -106.47544 | 10965 ft | 252 kts | 289° |
| 2026-04-25 13:06 | 36.77727 | -106.49620 | 10725 ft | 255 kts | 289° |
| 2026-04-25 13:06 | 36.78306 | -106.51684 | 10496 ft | 257 kts | 289° |
| 2026-04-25 13:06 | 36.78907 | -106.53795 | 10257 ft | 260 kts | 289° |
| 2026-04-25 13:06 | 36.79508 | -106.55925 | 10017 ft | 260 kts | 289° |
| 2026-04-25 13:07 | 36.80087 | -106.57994 | 9778 ft | 247 kts | 289° |
| 2026-04-25 13:07 | 36.80637 | -106.59984 | 9508 ft | 239 kts | 289° |
| 2026-04-25 13:07 | 36.81180 | -106.61923 | 9347 ft | 232 kts | 289° |
| 2026-04-25 13:07 | 36.81747 | -106.63761 | 9372 ft | 222 kts | 296° |
| 2026-04-25 13:08 | 36.82591 | -106.65309 | 9576 ft | 211 kts | 309° |
| 2026-04-25 13:08 | 36.83662 | -106.66534 | 9772 ft | 208 kts | 321° |
| 2026-04-25 13:08 | 36.84871 | -106.67568 | 9964 ft | 214 kts | 322° |
| 2026-04-25 13:08 | 36.86101 | -106.68641 | 10159 ft | 218 kts | 321° |
| 2026-04-25 13:09 | 36.87093 | -106.70029 | 10351 ft | 216 kts | 292° |
| 2026-04-25 13:09 | 36.87275 | -106.71869 | 10550 ft | 217 kts | 264° |
| 2026-04-25 13:09 | 36.86804 | -106.73667 | 10726 ft | 222 kts | 242° |
| 2026-04-25 13:09 | 36.85723 | -106.75069 | 10902 ft | 230 kts | 218° |
| 2026-04-25 13:10 | 36.84195 | -106.75732 | 11073 ft | 241 kts | 191° |
| 2026-04-25 13:10 | 36.82519 | -106.75390 | 11247 ft | 253 kts | 161° |
| 2026-04-25 13:10 | 36.81128 | -106.74020 | 11412 ft | 261 kts | 130° |
| 2026-04-25 13:10 | 36.80405 | -106.71942 | 11581 ft | 266 kts | 100° |
| 2026-04-25 13:11 | 36.80541 | -106.69658 | 11757 ft | 266 kts | 70° |
| 2026-04-25 13:11 | 36.81496 | -106.67736 | 11889 ft | 261 kts | 40° |
| 2026-04-25 13:11 | 36.83031 | -106.66595 | 11890 ft | 257 kts | 11° |
| 2026-04-25 13:11 | 36.84748 | -106.66499 | 11891 ft | 239 kts | 343° |
| 2026-04-25 13:12 | 36.86137 | -106.67401 | 11892 ft | 219 kts | 312° |
| 2026-04-25 13:12 | 36.86908 | -106.69011 | 11585 ft | 219 kts | 283° |
| 2026-04-25 13:12 | 36.86859 | -106.70896 | 11341 ft | 221 kts | 258° |
| 2026-04-25 13:12 | 36.86722 | -106.71496 | 11274 ft | 221 kts | 256° |
| 2026-04-25 13:13 | 36.86164 | -106.74590 | 11039 ft | 217 kts | 265° |
| 2026-04-25 13:13 | 36.86090 | -106.76462 | 10893 ft | 215 kts | 272° |
| 2026-04-25 13:13 | 36.86230 | -106.78300 | 10756 ft | 211 kts | 281° |
| 2026-04-25 13:13 | 36.86641 | -106.80049 | 10619 ft | 209 kts | 290° |
| 2026-04-25 13:14 | 36.87187 | -106.81725 | 10463 ft | 208 kts | 291° |
| 2026-04-25 13:14 | 36.87718 | -106.83399 | 10321 ft | 207 kts | 290° |
| 2026-04-25 13:14 | 36.88244 | -106.85115 | 10168 ft | 216 kts | 290° |
| 2026-04-25 13:14 | 36.88785 | -106.86878 | 10100 ft | 217 kts | 290° |
| 2026-04-25 13:15 | 36.89312 | -106.88608 | 10096 ft | 210 kts | 290° |
| 2026-04-25 13:15 | 36.89827 | -106.90285 | 10109 ft | 209 kts | 290° |
| 2026-04-25 13:15 | 36.90346 | -106.91983 | 10094 ft | 209 kts | 290° |
| 2026-04-25 13:15 | 36.90861 | -106.93670 | 10101 ft | 207 kts | 290° |
| 2026-04-25 13:16 | 36.91375 | -106.95350 | 10100 ft | 207 kts | 290° |
| 2026-04-25 13:16 | 36.91888 | -106.97033 | 10092 ft | 207 kts | 290° |
| 2026-04-25 13:16 | 36.92399 | -106.98710 | 10095 ft | 207 kts | 290° |
| 2026-04-25 13:16 | 36.92911 | -107.00387 | 10095 ft | 207 kts | 290° |
| 2026-04-25 13:17 | 36.93455 | -107.02050 | 10103 ft | 207 kts | 296° |
| 2026-04-25 13:17 | 36.94302 | -107.03519 | 10119 ft | 210 kts | 311° |
| 2026-04-25 13:17 | 36.95435 | -107.04679 | 10128 ft | 214 kts | 324° |
| 2026-04-25 13:17 | 36.96801 | -107.05444 | 10141 ft | 218 kts | 339° |
| 2026-04-25 13:18 | 36.98320 | -107.05746 | 10148 ft | 223 kts | 351° |
| 2026-04-25 13:18 | 36.99867 | -107.05924 | 10158 ft | 224 kts | 350° |
| 2026-04-25 13:18 | 37.01413 | -107.06123 | 10165 ft | 223 kts | 350° |
| 2026-04-25 13:18 | 37.02428 | -107.06248 | 10186 ft | 219 kts | 350° |
| 2026-04-25 13:19 | 37.03932 | -107.06426 | 10195 ft | 215 kts | 350° |
| 2026-04-25 13:19 | 37.05416 | -107.06606 | 10207 ft | 213 kts | 350° |
| 2026-04-25 13:19 | 37.06886 | -107.06789 | 10213 ft | 211 kts | 350° |
| 2026-04-25 13:19 | 37.07874 | -107.06909 | 10223 ft | 211 kts | 350° |
| 2026-04-25 13:20 | 37.09804 | -107.07144 | 10233 ft | 210 kts | 350° |
| 2026-04-25 13:20 | 37.11253 | -107.07321 | 10240 ft | 208 kts | 350° |
| 2026-04-25 13:20 | 37.12685 | -107.07494 | 10250 ft | 205 kts | 350° |
| 2026-04-25 13:20 | 37.14085 | -107.07628 | 10258 ft | 201 kts | 356° |
| 2026-04-25 13:21 | 37.15442 | -107.07506 | 10106 ft | 175 kts | 0° |
| 2026-04-25 13:21 | 37.16549 | -107.07405 | 9914 ft | 148 kts | 358° |
| 2026-04-25 13:21 | 37.17546 | -107.07335 | 9718 ft | 139 kts | 358° |
| 2026-04-25 13:21 | 37.18504 | -107.07263 | 9534 ft | 138 kts | 358° |
| 2026-04-25 13:22 | 37.19451 | -107.07188 | 9356 ft | 135 kts | 359° |
| 2026-04-25 13:22 | 37.20405 | -107.07109 | 9155 ft | 138 kts | 359° |
| 2026-04-25 13:22 | 37.21364 | -107.07031 | 8984 ft | 140 kts | 0° |
| 2026-04-25 13:23 | 37.23326 | -107.06861 | 8609 ft | 140 kts | 2° |
| 2026-04-25 13:23 | 37.24296 | -107.06784 | 8388 ft | 139 kts | 3° |
| 2026-04-25 13:23 | 37.25257 | -107.06707 | 8158 ft | 138 kts | 4° |
| 2026-04-25 13:23 | 37.26213 | -107.06623 | 7911 ft | 138 kts | 5° |
| 2026-04-25 13:24 | 37.27123 | -107.06381 | 7780 ft | 131 kts | 16° |
| 2026-04-25 13:24 | 37.27848 | -107.06029 | 7664 ft | 92 kts | 18° |
| 2026-04-25 13:24 | 37.28358 | -107.05781 | 7644 ft | 66 kts | 24° |
| 2026-04-25 13:24 | 37.28675 | -107.05589 | 7650 ft | 40 kts | 23° |
| 2026-04-25 13:25 | 37.28834 | -107.05581 | 7654 ft | 14 kts | 220° |
| 2026-04-25 13:25 | 37.28832 | -107.05617 | 7654 ft | 0 kts | 293° |
| 2026-04-25 13:25 | 37.28843 | -107.05645 | 7655 ft | 9 kts | 297° |
| 2026-04-25 13:26 | 37.28881 | -107.05716 | 7655 ft | 8 kts | 1° |
| 2026-04-25 13:26 | 37.28934 | -107.05702 | 7654 ft | 0 kts | 13° |